Time;durP1;ratioP1;P1;durP2;ratioP2;P2;SDS_P1;SDS_P2;PMS_P1;PMS_P2;Temp;Humidity;BMP_temperature;BMP_pressure;BME280_temperature;BME280_humidity;BME280_pressure;Samples;Min_cycle;Max_cycle;Signal;HPM_P1;HPM_P2
2022/09/19 04:01:58;;;;;;;2.20;1.20;;;6.70;96.30;;;;;;5250471;23;20856;-79
2022/09/19 04:04:24;;;;;;;3.90;1.50;;;6.70;96.30;;;;;;4977287;28;20489;-79
2022/09/19 04:06:49;;;;;;;1.30;1.20;;;6.70;96.30;;;;;;4991913;28;20504;-79
2022/09/19 04:09:14;;;;;;;2.17;1.50;;;6.70;96.30;;;;;;4976541;28;20420;-79
2022/09/19 04:11:41;;;;;;;1.83;1.30;;;6.70;96.30;;;;;;4976878;28;20205;-81
2022/09/19 04:14:08;;;;;;;3.97;1.57;;;6.80;96.30;;;;;;4980162;28;20270;-80
2022/09/19 04:16:34;;;;;;;2.43;1.80;;;6.80;96.30;;;;;;4955889;29;20932;-79
2022/09/19 04:19:00;;;;;;;1.70;1.30;;;6.80;96.30;;;;;;4956919;28;20513;-80
2022/09/19 04:21:26;;;;;;;4.83;1.50;;;6.70;96.30;;;;;;4956474;28;20195;-79
2022/09/19 04:23:54;;;;;;;2.50;1.40;;;6.70;96.30;;;;;;4957488;28;20179;-79
2022/09/19 04:26:21;;;;;;;2.73;2.00;;;6.80;96.30;;;;;;4956221;29;20561;-80
2022/09/19 04:28:47;;;;;;;4.20;1.90;;;6.80;96.30;;;;;;4952272;28;20964;-80
2022/09/19 04:31:12;;;;;;;4.07;1.40;;;6.80;96.30;;;;;;4955439;28;21003;-80
2022/09/19 04:33:39;;;;;;;4.10;1.60;;;6.80;96.30;;;;;;4953854;28;20458;-78
2022/09/19 04:36:05;;;;;;;2.10;1.90;;;6.80;96.30;;;;;;4953634;28;20171;-78
2022/09/19 04:38:33;;;;;;;4.50;2.07;;;6.80;96.30;;;;;;4945917;29;20934;-79
2022/09/19 04:43:33;;;;;;;2.23;1.67;;;6.80;96.30;;;;;;5220760;23;20548;-80
2022/09/19 04:46:01;;;;;;;1.43;1.33;;;6.80;96.30;;;;;;4955992;28;20815;-79
2022/09/19 04:48:26;;;;;;;2.30;2.10;;;6.80;96.30;;;;;;4956811;28;20183;-78
2022/09/19 04:50:53;;;;;;;2.63;2.00;;;6.80;96.30;;;;;;4953434;29;20446;-81
2022/09/19 04:53:22;;;;;;;2.27;1.90;;;6.80;96.30;;;;;;4955248;29;20206;-79
2022/09/19 04:55:49;;;;;;;2.00;1.80;;;6.80;96.30;;;;;;4955761;29;20418;-78
2022/09/19 04:58:15;;;;;;;2.70;1.93;;;6.80;96.30;;;;;;4955313;29;20542;-78
2022/09/19 05:00:41;;;;;;;2.70;1.70;;;6.80;96.30;;;;;;4956843;28;20513;-79
2022/09/19 05:03:13;;;;;;;2.77;1.87;;;6.90;96.30;;;;;;4955511;29;20179;-80
2022/09/19 05:05:44;;;;;;;2.30;1.63;;;6.90;96.30;;;;;;4955761;29;20470;-80
2022/09/19 05:08:12;;;;;;;2.70;2.00;;;6.90;96.30;;;;;;4954767;28;20427;-80
2022/09/19 05:10:38;;;;;;;2.00;1.77;;;6.90;96.30;;;;;;4956589;29;20443;-78
2022/09/19 05:13:04;;;;;;;3.67;1.90;;;6.90;96.30;;;;;;4956701;28;20482;-79
2022/09/19 05:15:30;;;;;;;2.10;1.90;;;6.90;96.30;;;;;;4956645;29;20651;-80
2022/09/19 05:17:56;;;;;;;1.97;1.30;;;6.90;96.30;;;;;;4972689;28;20465;-79
2022/09/19 05:20:25;;;;;;;2.03;1.77;;;6.90;96.30;;;;;;4974028;28;20166;-80
2022/09/19 05:22:57;;;;;;;4.53;2.43;;;7.00;96.30;;;;;;4975646;28;20202;-80
2022/09/19 05:25:23;;;;;;;2.33;2.13;;;6.90;96.30;;;;;;4948089;28;20420;-80
2022/09/19 05:27:48;;;;;;;2.67;2.43;;;7.00;96.30;;;;;;4950292;29;20938;-80
2022/09/19 05:30:14;;;;;;;2.93;2.20;;;7.00;96.30;;;;;;4956070;28;20222;-79
2022/09/19 05:32:44;;;;;;;2.33;2.13;;;7.00;96.30;;;;;;4954743;28;20214;-80
2022/09/19 05:35:10;;;;;;;3.03;2.03;;;7.00;96.30;;;;;;4956056;29;20517;-79
2022/09/19 05:37:39;;;;;;;2.47;2.20;;;7.00;96.30;;;;;;4954651;28;20414;-78
2022/09/19 05:40:05;;;;;;;3.70;2.40;;;7.10;96.30;;;;;;4956495;28;20423;-82
2022/09/19 05:42:31;;;;;;;3.40;3.20;;;7.10;96.30;;;;;;4975447;28;20454;-80
2022/09/19 05:44:57;;;;;;;7.50;3.93;;;7.10;96.30;;;;;;4975819;28;20962;-80
2022/09/19 05:47:23;;;;;;;3.50;3.20;;;7.10;96.30;;;;;;4974452;28;20320;-81
2022/09/19 05:49:48;;;;;;;3.50;3.20;;;7.20;96.30;;;;;;4973685;28;20182;-80
2022/09/19 05:54:57;;;;;;;4.03;3.60;;;7.20;96.30;;;;;;4975472;28;20240;-82
2022/09/19 05:57:23;;;;;;;3.60;3.30;;;7.20;96.30;;;;;;4975456;28;20434;-83
2022/09/19 05:59:48;;;;;;;3.80;3.20;;;7.20;96.30;;;;;;4962934;28;20172;-81
2022/09/19 06:02:14;;;;;;;3.30;3.00;;;7.20;96.30;;;;;;4938338;29;20567;-82
2022/09/19 06:04:39;;;;;;;2.83;2.60;;;7.20;96.30;;;;;;4937537;29;20262;-82
2022/09/19 06:07:06;;;;;;;2.80;2.60;;;7.20;96.30;;;;;;4949712;28;20202;-82
2022/09/19 06:09:31;;;;;;;4.23;2.90;;;7.20;96.30;;;;;;4954048;28;20710;-83
2022/09/19 06:11:57;;;;;;;3.27;3.00;;;7.20;96.30;;;;;;4956008;29;20597;-82
2022/09/19 06:14:23;;;;;;;3.10;2.80;;;7.30;96.30;;;;;;4956266;28;20183;-83
2022/09/19 06:16:49;;;;;;;2.90;2.63;;;7.30;96.30;;;;;;4955536;29;20175;-82
2022/09/19 06:19:15;;;;;;;4.83;3.17;;;7.30;96.30;;;;;;4955190;28;20429;-80
2022/09/19 06:21:41;;;;;;;4.73;2.70;;;7.30;96.30;;;;;;4954035;29;20465;-82
2022/09/19 06:24:07;;;;;;;3.00;2.20;;;7.30;96.30;;;;;;4954057;29;20190;-82
2022/09/19 06:26:34;;;;;;;6.20;2.60;;;7.30;96.30;;;;;;4954299;28;20761;-82
2022/09/19 06:29:01;;;;;;;2.47;2.27;;;7.40;96.30;;;;;;4953994;28;20497;-81
2022/09/19 06:31:27;;;;;;;2.20;2.10;;;7.40;96.30;;;;;;4955633;29;20449;-82
2022/09/19 06:33:53;;;;;;;2.47;2.27;;;7.50;96.30;;;;;;4954140;28;20427;-82
2022/09/19 06:36:19;;;;;;;2.20;2.00;;;7.60;96.30;;;;;;4953763;29;20417;-82
2022/09/19 06:38:45;;;;;;;1.87;1.77;;;7.60;96.30;;;;;;4954569;28;20559;-82
2022/09/19 06:41:11;;;;;;;1.60;1.50;;;7.70;96.30;;;;;;4961223;28;20964;-82
2022/09/19 06:43:36;;;;;;;1.63;1.53;;;7.70;96.30;;;;;;4973183;28;20190;-83
2022/09/19 06:46:02;;;;;;;1.83;1.47;;;7.70;96.30;;;;;;4974552;28;20201;-81
2022/09/19 06:48:28;;;;;;;1.30;1.20;;;7.80;96.30;;;;;;4972785;28;20185;-80
2022/09/19 06:50:53;;;;;;;1.57;1.20;;;7.70;96.30;;;;;;4971760;28;21161;-80
2022/09/19 06:53:19;;;;;;;1.40;1.30;;;7.80;96.30;;;;;;4951737;28;20214;-79
2022/09/19 06:55:45;;;;;;;3.47;1.43;;;7.70;96.30;;;;;;4947589;29;20176;-80
2022/09/19 06:58:11;;;;;;;1.50;1.30;;;7.80;96.30;;;;;;4952666;28;20223;-81
2022/09/19 07:00:38;;;;;;;1.63;1.53;;;7.70;96.30;;;;;;4954052;29;20253;-81
2022/09/19 07:03:09;;;;;;;1.30;1.20;;;7.70;96.30;;;;;;4955765;29;20423;-82
2022/09/19 07:05:36;;;;;;;1.53;1.43;;;7.70;96.30;;;;;;4955629;29;20422;-82
2022/09/19 07:08:02;;;;;;;2.23;1.53;;;7.70;96.30;;;;;;4953808;29;20423;-82
2022/09/19 07:10:27;;;;;;;1.80;1.57;;;7.70;96.30;;;;;;4953856;29;20763;-82
2022/09/19 07:12:59;;;;;;;2.90;1.50;;;7.80;96.30;;;;;;4954939;29;20217;-81
2022/09/19 07:15:24;;;;;;;1.80;1.70;;;7.80;96.30;;;;;;4951590;29;20175;-83
2022/09/19 07:17:53;;;;;;;2.57;1.73;;;7.80;96.30;;;;;;4934581;29;20806;-81
2022/09/19 07:20:19;;;;;;;1.87;1.50;;;7.90;96.30;;;;;;4936104;29;20171;-81
2022/09/19 07:22:45;;;;;;;2.70;1.43;;;7.90;96.30;;;;;;4934980;29;20437;-82
2022/09/19 07:25:10;;;;;;;6.93;2.00;;;8.10;96.30;;;;;;4937786;29;20214;-82
2022/09/19 07:27:37;;;;;;;4.10;1.60;;;8.30;96.30;;;;;;4955048;28;20419;-83
2022/09/19 07:30:04;;;;;;;1.97;1.30;;;8.50;96.30;;;;;;4953750;29;20738;-82
2022/09/19 07:32:29;;;;;;;1.47;1.30;;;8.50;96.30;;;;;;4952801;29;20847;-82
2022/09/19 07:34:55;;;;;;;2.37;1.13;;;8.50;96.30;;;;;;4955772;28;20415;-83
2022/09/19 07:37:21;;;;;;;2.67;1.60;;;8.40;96.30;;;;;;4955535;28;20183;-83
2022/09/19 07:39:46;;;;;;;1.27;1.17;;;8.30;96.30;;;;;;4953888;28;20185;-82
2022/09/19 07:42:12;;;;;;;1.00;0.90;;;8.20;96.30;;;;;;4957476;28;20620;-82
2022/09/19 07:44:37;;;;;;;2.17;1.40;;;8.30;96.30;;;;;;4955297;28;20186;-83
2022/09/19 07:49:47;;;;;;;2.10;1.10;;;8.30;96.30;;;;;;4954334;29;20210;-83
2022/09/19 07:52:12;;;;;;;3.33;1.50;;;8.30;96.30;;;;;;4946910;28;20464;-82
2022/09/19 07:54:38;;;;;;;2.07;1.50;;;8.20;96.30;;;;;;4936268;28;20187;-82
2022/09/19 07:57:04;;;;;;;2.50;1.57;;;8.10;96.30;;;;;;4933491;29;20179;-83
2022/09/19 07:59:29;;;;;;;7.83;1.80;;;8.10;96.30;;;;;;4940232;29;20174;-83
2022/09/19 08:01:55;;;;;;;2.33;1.60;;;8.10;96.30;;;;;;4954252;28;20442;-82
2022/09/19 08:04:20;;;;;;;1.47;1.37;;;8.20;96.30;;;;;;4956209;29;20257;-83
2022/09/19 08:06:46;;;;;;;7.40;1.30;;;8.30;96.30;;;;;;4954234;28;20229;-82
2022/09/19 08:09:11;;;;;;;1.60;1.20;;;8.20;96.30;;;;;;4953636;28;20186;-81
2022/09/19 08:11:37;;;;;;;1.40;1.20;;;8.20;96.30;;;;;;4953907;28;20206;-80
2022/09/19 08:14:03;;;;;;;1.73;1.20;;;8.20;96.30;;;;;;4954674;28;20175;-82
2022/09/19 08:16:28;;;;;;;1.10;0.80;;;8.20;96.30;;;;;;4954552;28;20610;-82
2022/09/19 08:18:54;;;;;;;1.87;1.17;;;8.20;96.30;;;;;;4952589;29;20418;-82
2022/09/19 08:21:19;;;;;;;1.50;1.10;;;8.20;96.30;;;;;;4954174;28;20261;-82
2022/09/19 08:23:45;;;;;;;1.50;1.40;;;8.20;96.30;;;;;;4954220;28;20179;-82
2022/09/19 08:26:11;;;;;;;1.93;1.60;;;8.20;96.30;;;;;;4952645;29;20277;-82
2022/09/19 08:28:37;;;;;;;1.93;1.70;;;8.30;96.30;;;;;;4953211;29;20421;-80
2022/09/19 08:31:03;;;;;;;1.83;1.63;;;8.30;96.30;;;;;;4953394;29;20493;-79
2022/09/19 08:33:30;;;;;;;1.67;1.57;;;8.30;96.30;;;;;;4953635;28;20509;-79
2022/09/19 08:35:58;;;;;;;4.53;2.20;;;8.30;96.30;;;;;;4954690;29;20907;-80
2022/09/19 08:38:24;;;;;;;2.70;2.50;;;8.30;96.30;;;;;;4954346;28;20411;-81
2022/09/19 08:41:18;;;;;;;3.37;2.27;;;8.30;96.30;;;;;;4970390;28;20866;-82
2022/09/19 08:44:08;;;;;;;2.43;2.23;;;8.30;96.30;;;;;;4972270;28;20194;-81
2022/09/19 08:46:50;;;;;;;3.03;2.80;;;8.30;96.30;;;;;;4975623;28;20414;-83
2022/09/19 08:49:45;;;;;;;3.40;3.10;;;8.30;96.30;;;;;;4975161;28;20464;-83
2022/09/19 08:52:28;;;;;;;3.30;3.10;;;8.30;96.30;;;;;;4974531;28;20465;-83
2022/09/19 08:54:55;;;;;;;3.20;2.87;;;8.40;96.30;;;;;;4975778;28;20409;-83
2022/09/19 08:57:30;;;;;;;6.97;3.30;;;8.40;96.30;;;;;;4976154;28;20422;-83
2022/09/19 09:00:02;;;;;;;2.67;2.47;;;8.40;96.30;;;;;;4952070;28;20419;-83
2022/09/19 09:02:54;;;;;;;2.77;2.50;;;8.40;96.30;;;;;;4936488;29;20443;-83
2022/09/19 09:05:44;;;;;;;3.37;3.10;;;8.40;96.30;;;;;;4936859;29;20771;-82
2022/09/19 09:08:22;;;;;;;3.30;3.10;;;8.40;96.30;;;;;;4938367;29;20451;-81
2022/09/19 09:10:55;;;;;;;3.77;3.47;;;8.40;96.30;;;;;;4938492;29;20435;-81
2022/09/19 09:13:43;;;;;;;4.37;3.50;;;8.40;96.30;;;;;;4936475;29;20558;-83
2022/09/19 09:16:19;;;;;;;3.47;3.03;;;8.50;96.30;;;;;;4936717;29;20415;-83
2022/09/19 09:19:17;;;;;;;4.53;3.60;;;8.60;96.30;;;;;;4936055;29;20415;-83
2022/09/19 09:22:19;;;;;;;3.27;2.97;;;8.70;96.30;;;;;;4936097;29;20531;-83
2022/09/19 09:24:51;;;;;;;3.07;2.77;;;8.80;96.30;;;;;;4936562;29;20919;-83
2022/09/19 09:27:22;;;;;;;3.10;2.90;;;8.80;96.30;;;;;;4937590;29;20471;-83
2022/09/19 09:29:52;;;;;;;3.97;3.23;;;8.80;96.30;;;;;;4936338;29;20408;-83
2022/09/19 09:32:35;;;;;;;3.53;3.23;;;8.90;96.30;;;;;;4936997;29;20800;-83
2022/09/19 09:35:26;;;;;;;3.70;3.40;;;8.80;96.30;;;;;;4936619;29;20427;-83
2022/09/19 09:38:01;;;;;;;3.50;3.17;;;9.00;96.30;;;;;;4937235;29;20409;-82
2022/09/19 09:43:54;;;;;;;3.00;2.77;;;9.60;96.30;;;;;;4975573;28;20440;-83
2022/09/19 09:46:35;;;;;;;2.97;2.67;;;9.60;96.30;;;;;;4935675;29;20423;-83
2022/09/19 09:49:01;;;;;;;2.97;2.77;;;9.60;96.30;;;;;;4935365;29;20510;-83
2022/09/19 09:51:54;;;;;;;3.53;2.37;;;9.70;96.30;;;;;;4936869;29;20522;-82
2022/09/19 09:57:59;;;;;;;2.20;2.00;;;9.90;96.30;;;;;;4936236;29;20508;-82
2022/09/19 10:03:43;;;;;;;2.37;2.17;;;10.00;96.30;;;;;;4936898;29;20447;-82
2022/09/19 10:06:15;;;;;;;2.10;1.90;;;9.90;96.30;;;;;;4935362;29;20447;-82
2022/09/19 10:08:46;;;;;;;2.20;2.00;;;9.70;96.30;;;;;;4935248;29;20419;-81
2022/09/19 10:11:18;;;;;;;2.90;2.30;;;9.70;96.30;;;;;;4935259;29;20458;-83
2022/09/19 10:14:01;;;;;;;3.03;1.73;;;9.70;96.30;;;;;;4946099;29;20462;-82
2022/09/19 10:16:30;;;;;;;4.60;1.97;;;9.90;96.30;;;;;;4955620;29;20477;-81
2022/09/19 10:19:08;;;;;;;3.93;2.10;;;10.00;96.30;;;;;;4954996;28;20423;-80
2022/09/19 10:21:38;;;;;;;2.00;1.80;;;9.80;96.30;;;;;;4954571;29;20462;-81
2022/09/19 10:24:40;;;;;;;2.20;2.00;;;9.70;96.30;;;;;;4953998;29;20407;-81
2022/09/19 10:27:29;;;;;;;1.70;1.60;;;9.90;96.30;;;;;;4955265;28;20497;-82
2022/09/19 10:29:59;;;;;;;2.70;2.10;;;10.20;96.30;;;;;;4955157;29;20758;-82
2022/09/19 10:32:27;;;;;;;2.03;1.93;;;10.30;96.30;;;;;;4954244;28;20578;-79
2022/09/19 10:34:53;;;;;;;4.10;1.80;;;10.60;96.30;;;;;;4955035;28;20926;-79
2022/09/19 10:37:23;;;;;;;3.50;2.00;;;10.70;96.30;;;;;;4953839;29;20415;-78
2022/09/19 10:39:48;;;;;;;2.13;1.70;;;10.60;96.30;;;;;;4963211;28;20179;-81
2022/09/19 10:42:37;;;;;;;3.43;1.40;;;10.70;96.30;;;;;;4972680;28;20881;-79
2022/09/19 10:45:16;;;;;;;2.53;1.93;;;10.90;96.30;;;;;;4974373;28;20254;-82
2022/09/19 10:47:42;;;;;;;1.53;1.43;;;11.00;96.30;;;;;;4973322;28;20413;-81
2022/09/19 10:50:15;;;;;;;3.50;1.57;;;11.00;96.30;;;;;;4972724;28;20416;-82
2022/09/19 10:52:42;;;;;;;1.67;1.37;;;11.00;96.30;;;;;;4974263;28;20858;-81
2022/09/19 10:55:14;;;;;;;2.10;1.50;;;10.90;96.30;;;;;;4972981;28;20418;-81
2022/09/19 10:57:58;;;;;;;1.20;1.10;;;10.80;96.30;;;;;;4974054;28;20925;-81
2022/09/19 11:00:27;;;;;;;4.20;2.30;;;10.60;96.30;;;;;;4974052;28;20394;-80
2022/09/19 11:02:59;;;;;;;1.30;1.20;;;10.60;96.30;;;;;;4973280;28;20452;-80
2022/09/19 11:05:28;;;;;;;3.20;1.57;;;10.60;96.30;;;;;;4984597;28;20422;-81
2022/09/19 11:07:54;;;;;;;4.33;1.87;;;10.60;96.30;;;;;;4996817;28;20472;-82
2022/09/19 11:10:38;;;;;;;2.60;1.70;;;10.70;96.30;;;;;;4998210;28;20444;-82
2022/09/19 11:13:20;;;;;;;4.43;1.73;;;11.00;96.30;;;;;;4998469;28;20487;-83
2022/09/19 11:15:55;;;;;;;1.80;1.70;;;11.80;96.30;;;;;;4997175;28;20397;-80
2022/09/19 11:18:34;;;;;;;1.93;1.43;;;12.40;96.30;;;;;;4977367;28;20472;-80
2022/09/19 11:21:28;;;;;;;1.60;1.23;;;12.40;96.30;;;;;;4978598;28;20436;-81
2022/09/19 11:24:12;;;;;;;5.17;1.20;;;12.20;96.30;;;;;;4978684;28;20873;-81
2022/09/19 11:27:01;;;;;;;1.13;0.90;;;12.00;96.30;;;;;;4976671;28;20417;-81
2022/09/19 11:29:57;;;;;;;3.27;1.00;;;11.60;96.30;;;;;;4972159;28;20504;-81
2022/09/19 11:32:57;;;;;;;1.60;0.90;;;11.20;96.30;;;;;;4977545;28;20682;-81
2022/09/19 11:35:33;;;;;;;1.70;0.90;;;11.00;96.30;;;;;;4976916;28;20424;-81
2022/09/19 11:38:40;;;;;;;2.10;1.03;;;11.00;96.30;;;;;;4977158;28;20469;-81
2022/09/19 11:41:31;;;;;;;2.10;1.10;;;10.90;96.30;;;;;;4975995;28;20465;-80
2022/09/19 11:44:28;;;;;;;0.90;0.80;;;11.00;96.30;;;;;;4978520;28;20445;-81
2022/09/19 11:47:14;;;;;;;2.90;0.80;;;10.80;96.30;;;;;;4976616;28;20410;-81
2022/09/19 11:49:53;;;;;;;1.00;0.77;;;10.10;96.30;;;;;;4976197;28;20412;-81
2022/09/19 11:52:42;;;;;;;0.80;0.60;;;9.80;96.30;;;;;;4976575;28;20485;-81
2022/09/19 11:55:50;;;;;;;2.20;0.73;;;9.50;96.30;;;;;;4975840;28;20417;-81
2022/09/19 11:58:21;;;;;;;2.23;0.70;;;9.50;96.30;;;;;;4951151;28;20506;-81
2022/09/19 12:01:15;;;;;;;1.77;1.00;;;9.50;96.30;;;;;;4936487;29;20522;-81
2022/09/19 12:04:11;;;;;;;1.10;0.80;;;9.50;96.30;;;;;;4950773;28;20485;-80
2022/09/19 12:07:08;;;;;;;1.27;0.80;;;9.50;96.30;;;;;;4952457;29;20418;-81
2022/09/19 12:09:45;;;;;;;1.20;0.90;;;9.60;96.30;;;;;;4958456;28;20852;-81
2022/09/19 12:12:17;;;;;;;1.67;0.80;;;9.70;96.30;;;;;;4944072;29;20546;-78
2022/09/19 12:15:19;;;;;;;1.57;0.70;;;9.70;96.30;;;;;;4955153;29;20444;-78
2022/09/19 12:18:03;;;;;;;1.77;0.70;;;9.90;96.30;;;;;;4936263;29;20403;-82
2022/09/19 12:20:34;;;;;;;1.00;0.77;;;9.90;96.30;;;;;;4939516;29;20411;-79
2022/09/19 12:26:17;;;;;;;3.00;0.90;;;9.80;96.30;;;;;;4958504;29;20922;-78
2022/09/19 12:28:49;;;;;;;3.53;0.90;;;9.80;96.30;;;;;;4954684;28;20408;-79
2022/09/19 12:31:17;;;;;;;1.30;0.80;;;9.70;96.30;;;;;;4952621;29;20434;-79
2022/09/19 12:34:01;;;;;;;1.20;0.70;;;9.70;96.30;;;;;;4938320;29;20558;-79
2022/09/19 12:36:38;;;;;;;1.00;0.70;;;9.70;96.30;;;;;;4945931;28;20411;-79
2022/09/19 12:39:19;;;;;;;1.63;0.70;;;10.00;96.30;;;;;;4958075;28;20438;-77
2022/09/19 12:42:00;;;;;;;0.90;0.60;;;10.40;96.30;;;;;;4970041;28;20976;-81
2022/09/19 12:44:56;;;;;;;1.00;0.70;;;11.10;96.30;;;;;;4978296;28;20405;-78
2022/09/19 12:47:46;;;;;;;1.37;0.70;;;11.70;96.30;;;;;;4977884;28;20481;-78
2022/09/19 12:50:19;;;;;;;1.90;0.90;;;12.70;96.30;;;;;;4978340;28;20394;-80
2022/09/19 12:53:03;;;;;;;6.27;1.00;;;13.40;96.30;;;;;;4977790;28;20462;-80
2022/09/19 12:55:38;;;;;;;2.30;1.07;;;13.70;96.30;;;;;;4976729;28;20414;-81
2022/09/19 12:58:20;;;;;;;1.40;0.90;;;14.00;96.30;;;;;;4954333;29;20450;-81
2022/09/19 13:00:48;;;;;;;1.87;0.90;;;14.60;96.30;;;;;;4959807;28;20513;-80
2022/09/19 13:03:22;;;;;;;1.63;0.80;;;15.20;96.30;;;;;;4960777;28;20415;-80
2022/09/19 13:06:00;;;;;;;1.20;0.80;;;15.30;96.30;;;;;;4969398;28;20824;-80
2022/09/19 13:08:35;;;;;;;1.43;0.90;;;15.20;96.30;;;;;;4979687;28;20417;-81
2022/09/19 13:11:21;;;;;;;1.33;0.87;;;14.60;96.30;;;;;;4950755;29;20500;-80
2022/09/19 13:13:59;;;;;;;1.30;0.70;;;14.00;96.30;;;;;;4956404;28;20485;-81
2022/09/19 13:16:32;;;;;;;1.00;0.67;;;13.60;96.30;;;;;;4944556;29;20419;-81
2022/09/19 13:24:36;;;;;;;3.23;0.97;;;13.00;96.30;;;;;;4957290;29;20405;-77
2022/09/19 13:27:04;;;;;;;1.23;0.80;;;12.50;96.30;;;;;;4957393;28;20402;-77
2022/09/19 13:29:29;;;;;;;1.60;0.93;;;12.40;96.30;;;;;;4956393;28;20977;-77
2022/09/19 13:32:01;;;;;;;1.57;0.87;;;12.30;96.30;;;;;;4957078;28;20493;-77
2022/09/19 13:34:32;;;;;;;3.30;1.10;;;12.20;96.30;;;;;;4957219;28;20159;-77
2022/09/19 13:37:18;;;;;;;3.13;1.53;;;12.00;96.30;;;;;;4954864;28;20430;-77
2022/09/19 13:39:53;;;;;;;1.80;1.27;;;11.70;96.30;;;;;;4955745;29;20458;-77
2022/09/19 13:42:27;;;;;;;2.47;1.00;;;11.40;96.30;;;;;;4971385;28;20519;-76
2022/09/19 13:45:17;;;;;;;1.83;0.90;;;11.30;96.30;;;;;;4971905;28;20504;-80
2022/09/19 13:47:46;;;;;;;2.00;0.90;;;11.20;96.30;;;;;;4977309;28;20466;-80
2022/09/19 13:50:32;;;;;;;1.10;0.80;;;11.30;96.30;;;;;;4978087;28;20418;-81
2022/09/19 13:53:02;;;;;;;2.73;0.70;;;12.20;96.30;;;;;;4970359;28;20484;-80
2022/09/19 13:55:46;;;;;;;4.20;1.00;;;12.90;96.30;;;;;;4979305;28;20418;-80
2022/09/19 13:58:34;;;;;;;2.17;0.80;;;13.10;96.30;;;;;;4965632;28;20450;-80
2022/09/19 14:01:14;;;;;;;2.60;0.80;;;12.80;96.30;;;;;;4955691;28;20452;-80
2022/09/19 14:03:53;;;;;;;6.63;0.80;;;12.70;96.30;;;;;;4976458;28;20433;-80
2022/09/19 14:06:27;;;;;;;2.60;0.80;;;12.70;96.30;;;;;;4978905;28;20417;-80
2022/09/19 14:09:12;;;;;;;3.13;0.93;;;13.40;96.30;;;;;;4976994;28;20418;-80
2022/09/19 14:11:38;;;;;;;1.47;0.80;;;13.80;96.30;;;;;;4978746;28;20690;-80
2022/09/19 14:14:49;;;;;;;3.43;1.00;;;14.20;96.30;;;;;;4958347;28;20582;-81
2022/09/19 14:17:17;;;;;;;3.37;1.50;;;13.90;96.30;;;;;;4951931;28;20186;-80
2022/09/19 14:19:48;;;;;;;1.10;1.00;;;13.90;96.30;;;;;;4970569;28;20444;-80
2022/09/19 14:22:35;;;;;;;2.93;1.10;;;13.80;96.30;;;;;;4978034;28;20495;-80
2022/09/19 14:25:23;;;;;;;1.53;0.80;;;13.70;96.30;;;;;;4970764;28;20428;-80
2022/09/19 14:28:16;;;;;;;1.30;1.00;;;13.20;96.30;;;;;;4967908;28;20452;-81
2022/09/19 14:31:01;;;;;;;1.47;0.93;;;13.20;96.30;;;;;;4976841;28;20425;-80
2022/09/19 14:34:10;;;;;;;1.27;0.60;;;12.90;96.30;;;;;;4969169;28;20507;-81
2022/09/19 14:36:53;;;;;;;2.23;1.13;;;12.70;96.30;;;;;;4978602;28;20485;-81
2022/09/19 14:39:53;;;;;;;2.37;1.23;;;12.80;96.30;;;;;;4976181;28;20414;-80
2022/09/19 14:42:47;;;;;;;2.23;0.97;;;12.50;96.30;;;;;;4954506;28;20556;-80
2022/09/19 14:45:38;;;;;;;2.00;1.00;;;12.50;96.30;;;;;;4952295;29;20475;-82
2022/09/19 14:48:17;;;;;;;2.00;0.90;;;13.10;96.30;;;;;;4940067;29;20490;-78
2022/09/19 14:50:49;;;;;;;2.70;1.00;;;13.00;96.30;;;;;;4935517;29;20940;-77
2022/09/19 14:53:28;;;;;;;1.57;0.80;;;13.40;96.30;;;;;;4935611;29;20447;-77
2022/09/19 14:56:00;;;;;;;2.90;1.00;;;14.10;96.30;;;;;;4935488;29;20873;-81
2022/09/19 14:58:33;;;;;;;1.63;0.93;;;14.40;96.30;;;;;;4933601;29;20514;-79
2022/09/19 15:01:15;;;;;;;3.87;0.90;;;14.00;96.30;;;;;;4936977;29;20435;-81
2022/09/19 15:03:54;;;;;;;2.80;0.80;;;13.50;96.30;;;;;;4939181;29;20416;-78
2022/09/19 15:06:31;;;;;;;1.53;0.80;;;12.90;96.30;;;;;;4935413;29;20541;-77
2022/09/19 15:08:57;;;;;;;2.50;0.70;;;12.90;96.30;;;;;;4934986;29;20474;-82
2022/09/19 15:11:22;;;;;;;3.40;1.00;;;12.90;96.30;;;;;;4950015;29;20446;-82
2022/09/19 15:13:56;;;;;;;1.20;0.67;;;12.90;96.30;;;;;;4961282;28;20293;-81
2022/09/19 15:16:23;;;;;;;3.30;1.10;;;12.70;96.30;;;;;;4960207;29;20183;-82
2022/09/19 15:18:54;;;;;;;1.97;0.87;;;12.50;96.30;;;;;;4957910;29;20418;-81
2022/09/19 15:21:22;;;;;;;1.43;0.90;;;12.20;96.30;;;;;;4959717;29;20939;-81
2022/09/19 15:23:49;;;;;;;2.67;1.20;;;12.10;96.30;;;;;;4953207;29;20428;-79
2022/09/19 15:26:21;;;;;;;1.97;0.90;;;11.90;96.30;;;;;;4954238;28;20478;-81
2022/09/19 15:28:58;;;;;;;3.27;1.10;;;11.80;96.30;;;;;;4952800;28;20459;-78
2022/09/19 15:31:28;;;;;;;1.60;0.80;;;11.70;96.30;;;;;;4954190;29;20819;-78
2022/09/19 15:34:15;;;;;;;7.07;1.27;;;11.70;96.30;;;;;;4953929;28;20458;-78
2022/09/19 15:36:43;;;;;;;1.50;0.90;;;11.90;96.30;;;;;;4954207;28;20967;-78
2022/09/19 15:39:10;;;;;;;5.97;1.07;;;12.00;96.30;;;;;;4957108;29;20417;-81
2022/09/19 15:41:37;;;;;;;2.33;1.07;;;12.30;96.30;;;;;;4969315;28;20516;-82
2022/09/19 15:44:07;;;;;;;3.90;0.97;;;12.40;96.30;;;;;;4977992;28;20487;-81
2022/09/19 15:46:39;;;;;;;1.80;1.13;;;12.80;96.30;;;;;;4975518;28;20925;-82
2022/09/19 15:49:18;;;;;;;1.10;0.80;;;13.00;96.30;;;;;;4975082;28;20433;-82
2022/09/19 15:51:54;;;;;;;2.90;0.80;;;13.10;96.30;;;;;;4973894;28;20445;-82
2022/09/19 15:54:28;;;;;;;4.10;1.07;;;12.70;96.30;;;;;;4978023;28;20436;-82
2022/09/19 15:56:56;;;;;;;2.60;1.00;;;12.50;96.30;;;;;;4979263;28;20413;-82
2022/09/19 15:59:29;;;;;;;1.80;0.70;;;12.60;96.30;;;;;;4979115;28;20406;-81
2022/09/19 16:02:07;;;;;;;4.27;0.90;;;12.50;96.30;;;;;;4977653;28;20461;-81
2022/09/19 16:04:33;;;;;;;1.73;0.80;;;12.70;96.30;;;;;;4974827;28;20457;-81
2022/09/19 16:09:48;;;;;;;2.13;0.90;;;12.70;96.30;;;;;;4960299;29;20422;-82
2022/09/19 16:12:19;;;;;;;3.13;0.97;;;12.60;96.30;;;;;;4940311;29;20935;-82
2022/09/19 16:14:49;;;;;;;2.00;0.87;;;12.20;96.30;;;;;;4938837;29;20419;-82
2022/09/19 16:17:18;;;;;;;1.43;0.80;;;12.00;96.30;;;;;;4938551;29;21140;-83
2022/09/19 16:19:45;;;;;;;3.47;1.30;;;11.80;96.30;;;;;;4937100;29;20439;-82
2022/09/19 16:22:13;;;;;;;1.50;0.87;;;11.70;96.30;;;;;;4937639;28;20443;-82
2022/09/19 16:24:47;;;;;;;1.63;0.70;;;11.60;96.30;;;;;;4937613;29;20423;-82
2022/09/19 16:27:13;;;;;;;4.10;0.80;;;11.40;96.30;;;;;;4938913;29;20407;-82
2022/09/19 16:29:47;;;;;;;3.57;1.10;;;11.10;96.30;;;;;;4938862;29;20758;-82
2022/09/19 16:32:19;;;;;;;1.57;1.20;;;11.00;96.30;;;;;;4939496;29;20546;-83
2022/09/19 16:34:53;;;;;;;2.33;0.77;;;10.90;96.30;;;;;;4939088;29;20926;-82
2022/09/19 16:37:24;;;;;;;2.37;0.90;;;10.70;96.30;;;;;;4938138;29;20481;-81
2022/09/19 16:39:50;;;;;;;4.03;1.10;;;10.60;96.30;;;;;;4937626;29;20946;-81
2022/09/19 16:42:16;;;;;;;2.27;1.13;;;10.40;96.30;;;;;;4971732;28;21039;-81
2022/09/19 16:44:50;;;;;;;2.43;1.40;;;10.30;96.30;;;;;;4977933;28;20417;-81
2022/09/19 16:47:22;;;;;;;4.50;1.47;;;10.20;96.30;;;;;;4977776;28;20188;-80
2022/09/19 16:49:49;;;;;;;4.90;1.70;;;10.20;96.30;;;;;;4975863;28;20421;-81
2022/09/19 16:52:22;;;;;;;5.13;1.50;;;10.10;96.30;;;;;;4976218;28;20535;-81
2022/09/19 16:54:48;;;;;;;4.50;1.67;;;10.10;96.30;;;;;;4977633;28;20418;-81
2022/09/19 16:57:18;;;;;;;2.80;2.00;;;10.00;96.30;;;;;;4976164;28;20426;-78
2022/09/19 16:59:44;;;;;;;5.33;2.70;;;10.00;96.30;;;;;;4975982;28;20438;-79
2022/09/19 17:02:31;;;;;;;3.40;2.23;;;10.10;96.30;;;;;;4975049;28;20472;-80
2022/09/19 17:05:03;;;;;;;2.40;2.10;;;10.10;96.30;;;;;;4974118;28;20402;-81
2022/09/19 17:07:29;;;;;;;2.40;1.50;;;10.10;96.30;;;;;;4959145;28;20509;-78
2022/09/19 17:09:55;;;;;;;1.80;0.80;;;10.10;96.30;;;;;;4955579;29;20977;-83
2022/09/19 17:12:22;;;;;;;1.17;0.80;;;9.80;96.30;;;;;;4956733;29;20279;-78
2022/09/19 17:14:48;;;;;;;2.43;0.70;;;9.20;96.30;;;;;;4955313;28;20171;-76
2022/09/19 17:17:14;;;;;;;2.13;0.70;;;8.70;96.30;;;;;;4956321;28;20985;-78
2022/09/19 17:19:44;;;;;;;4.10;0.70;;;8.60;96.30;;;;;;4957601;28;20493;-76
2022/09/19 17:22:15;;;;;;;1.30;0.60;;;8.50;96.30;;;;;;4976239;28;20816;-76
2022/09/19 17:24:41;;;;;;;0.90;0.60;;;8.40;96.30;;;;;;4964061;28;20422;-77
2022/09/19 17:27:07;;;;;;;4.13;1.07;;;8.30;96.30;;;;;;4953046;28;20431;-76
2022/09/19 17:29:33;;;;;;;1.40;0.80;;;8.30;96.30;;;;;;4966168;28;20429;-77
2022/09/19 17:31:59;;;;;;;2.30;0.70;;;8.20;96.30;;;;;;4954861;28;20442;-75
2022/09/19 17:34:24;;;;;;;1.10;0.50;;;8.10;96.30;;;;;;4953207;29;20441;-77
2022/09/19 17:36:49;;;;;;;2.00;0.80;;;8.10;96.30;;;;;;4954899;28;20179;-80
2022/09/19 17:39:15;;;;;;;2.00;0.70;;;8.10;96.30;;;;;;4956925;28;20175;-83
2022/09/19 17:59:49;;;;;;;1.20;0.60;;;8.00;96.30;;;;;;6063513;23;20431;-80
2022/09/19 18:04:59;;;;;;;3.20;1.30;;;7.90;96.30;;;;;;4955679;29;20170;-81
2022/09/19 18:07:25;;;;;;;2.23;1.43;;;8.00;96.30;;;;;;4955043;28;20411;-83
2022/09/19 18:09:50;;;;;;;3.30;1.10;;;8.00;96.30;;;;;;4945555;28;20188;-83
2022/09/19 18:12:16;;;;;;;5.83;2.60;;;7.90;96.30;;;;;;4935064;29;20478;-83
2022/09/19 18:14:44;;;;;;;1.57;1.20;;;7.90;96.30;;;;;;4936044;29;20176;-82